Time;durP1;ratioP1;P1;durP2;ratioP2;P2;SDS_P1;SDS_P2;PMS_P1;PMS_P2;Temp;Humidity;BMP_temperature;BMP_pressure;BME280_temperature;BME280_humidity;BME280_pressure;Samples;Min_cycle;Max_cycle;Signal;HPM_P1;HPM_P2
2022/01/02 00:00:17;;;;;;;;;;;10.00;99.90;;;;;;5033015;28;19909;-84
2022/01/02 00:02:48;;;;;;;;;;;10.00;99.90;;;;;;5035623;28;20396;-82
2022/01/02 00:05:15;;;;;;;;;;;9.90;99.90;;;;;;5047837;28;19916;-84
2022/01/02 00:07:49;;;;;;;;;;;9.90;99.90;;;;;;5035449;28;19947;-84
2022/01/02 00:10:17;;;;;;;;;;;9.80;99.90;;;;;;5049973;28;20283;-83
2022/01/02 00:12:49;;;;;;;;;;;9.80;99.90;;;;;;5052238;28;19913;-82
2022/01/02 00:15:15;;;;;;;;;;;9.80;99.90;;;;;;5052494;28;19947;-83
2022/01/02 00:17:42;;;;;;;;;;;9.70;99.90;;;;;;5052803;28;19920;-84
2022/01/02 00:20:12;;;;;;;;;;;9.70;99.90;;;;;;5035811;28;20409;-84
2022/01/02 00:22:40;;;;;;;;;;;9.70;99.90;;;;;;5055514;28;19919;-83
2022/01/02 00:25:12;;;;;;;;;;;9.70;99.90;;;;;;5037066;28;19912;-83
2022/01/02 00:27:37;;;;;;;;;;;9.70;99.90;;;;;;5052060;28;19966;-84
2022/01/02 00:30:04;;;;;;;;;;;9.70;99.90;;;;;;5038757;28;20392;-84
2022/01/02 00:32:32;;;;;;;;;;;9.70;99.90;;;;;;5054396;28;19908;-84
2022/01/02 00:34:59;;;;;;;;;;;9.60;99.90;;;;;;5038482;28;19916;-84
2022/01/02 00:37:25;;;;;;;;;;;9.60;99.90;;;;;;5035788;28;19956;-84
2022/01/02 00:39:50;;;;;;;;;;;9.50;99.90;;;;;;5039820;28;19956;-83
2022/01/02 00:42:39;;;;;;;;;;;9.50;99.90;;;;;;5055832;28;19912;-83
2022/01/02 00:45:04;;;;;;;;;;;9.50;99.90;;;;;;5029392;28;19912;-84
2022/01/02 00:47:30;;;;;;;;;;;9.40;99.90;;;;;;5036555;28;19974;-84
2022/01/02 00:50:03;;;;;;;;;;;9.40;99.90;;;;;;5054463;28;19913;-83
2022/01/02 00:52:28;;;;;;;;;;;9.40;99.90;;;;;;5039483;28;19912;-83
2022/01/02 00:55:16;;;;;;;;;;;9.30;99.90;;;;;;5041058;28;20305;-84
2022/01/02 00:57:42;;;;;;;;;;;9.30;99.90;;;;;;5054634;28;19912;-83
2022/01/02 01:00:08;;;;;;;;;;;9.30;99.90;;;;;;5038587;28;19913;-83
2022/01/02 01:02:37;;;;;;;;;;;9.30;99.90;;;;;;5040201;28;20597;-84
2022/01/02 01:05:04;;;;;;;;;;;9.30;99.90;;;;;;5045055;28;19917;-84
2022/01/02 01:07:30;;;;;;;;;;;9.30;99.90;;;;;;5042215;28;19937;-84
2022/01/02 01:09:57;;;;;;;;;;;9.30;99.90;;;;;;5037229;28;19916;-84
2022/01/02 01:12:23;;;;;;;;;;;9.20;99.90;;;;;;5045409;28;20359;-83
2022/01/02 01:14:49;;;;;;;;;;;9.20;99.90;;;;;;5041022;28;19913;-84
2022/01/02 01:17:15;;;;;;;;;;;9.20;99.90;;;;;;5039615;28;19917;-83
2022/01/02 01:19:41;;;;;;;;;;;9.20;99.90;;;;;;5053815;28;19912;-84
2022/01/02 01:22:06;;;;;;;;;;;9.20;99.90;;;;;;5037655;28;20082;-83
2022/01/02 01:24:35;;;;;;;;;;;9.20;99.90;;;;;;5053141;28;19909;-83
2022/01/02 01:27:01;;;;;;;;;;;9.10;99.90;;;;;;5044987;28;19916;-84
2022/01/02 01:29:27;;;;;;;;;;;9.10;99.90;;;;;;5039350;28;19915;-83
2022/01/02 01:31:53;;;;;;;;;;;9.10;99.90;;;;;;5038294;28;19952;-84
2022/01/02 01:34:18;;;;;;;;;;;9.10;99.90;;;;;;5044786;28;19913;-84
2022/01/02 01:36:53;;;;;;;;;;;9.10;99.90;;;;;;5052426;28;20363;-83
2022/01/02 01:39:18;;;;;;;;;;;9.10;99.90;;;;;;5039371;28;20381;-84
2022/01/02 01:41:45;;;;;;;;;;;9.10;99.90;;;;;;5052052;28;19912;-85
2022/01/02 01:46:39;;;;;;;;;;;9.10;99.90;;;;;;5052353;28;19913;-84
2022/01/02 01:49:18;;;;;;;;;;;9.10;99.90;;;;;;5035255;28;19912;-83
2022/01/02 01:51:44;;;;;;;;;;;9.10;99.90;;;;;;5052756;28;20007;-83
2022/01/02 01:54:09;;;;;;;;;;;9.10;99.90;;;;;;5036420;28;19996;-84
2022/01/02 01:56:35;;;;;;;;;;;9.10;99.90;;;;;;5051037;28;19987;-83
2022/01/02 01:59:02;;;;;;;;;;;9.10;99.90;;;;;;5035674;28;19916;-84
2022/01/02 02:01:27;;;;;;;;;;;9.10;99.90;;;;;;5035018;28;19948;-84
2022/01/02 02:03:53;;;;;;;;;;;9.10;99.90;;;;;;5036062;28;20402;-83
2022/01/02 02:06:19;;;;;;;;;;;9.00;99.90;;;;;;5036354;28;19913;-83
2022/01/02 02:08:44;;;;;;;;;;;9.00;99.90;;;;;;5038437;28;19912;-83
2022/01/02 02:11:10;;;;;;;;;;;9.00;99.90;;;;;;5037174;28;20306;-84
2022/01/02 02:13:38;;;;;;;;;;;9.10;99.90;;;;;;5054109;28;19913;-83
2022/01/02 02:16:03;;;;;;;;;;;9.10;99.90;;;;;;5052228;28;19943;-83
2022/01/02 02:18:29;;;;;;;;;;;9.10;99.90;;;;;;5049296;28;20295;-83
2022/01/02 02:20:54;;;;;;;;;;;9.10;99.90;;;;;;5049247;28;19951;-84
2022/01/02 02:23:42;;;;;;;;;;;9.10;99.90;;;;;;5035282;28;19966;-84
2022/01/02 02:26:05;;;;;;;;;;;9.10;99.90;;;;;;5053701;28;19920;-84
2022/01/02 02:28:31;;;;;;;;;;;9.10;99.90;;;;;;5037727;28;20500;-84
2022/01/02 02:30:56;;;;;;;;;;;9.00;99.90;;;;;;5043532;28;20327;-84
2022/01/02 02:33:24;;;;;;;;;;;9.00;99.90;;;;;;5033643;28;20296;-83
2022/01/02 02:35:51;;;;;;;;;;;9.00;99.90;;;;;;5051810;28;19912;-84
2022/01/02 02:38:17;;;;;;;;;;;9.00;99.90;;;;;;5034900;28;20284;-83
2022/01/02 02:40:43;;;;;;;;;;;9.00;99.90;;;;;;5037233;28;19916;-84
2022/01/02 02:51:12;;;;;;;;;;;8.90;99.90;;;;;;5051169;28;19919;-83
2022/01/02 02:53:40;;;;;;;;;;;8.90;99.90;;;;;;5042190;28;19935;-84
2022/01/02 02:58:56;;;;;;;;;;;8.90;99.90;;;;;;5052060;28;19931;-83
2022/01/02 03:01:22;;;;;;;;;;;8.80;99.90;;;;;;5039469;28;20015;-83
2022/01/02 03:03:51;;;;;;;;;;;8.80;99.90;;;;;;5051626;28;19958;-83
2022/01/02 03:06:17;;;;;;;;;;;8.80;99.90;;;;;;5050168;28;19920;-84
2022/01/02 03:08:43;;;;;;;;;;;8.80;99.90;;;;;;5031287;28;19912;-83
2022/01/02 03:11:14;;;;;;;;;;;8.80;99.90;;;;;;5032095;28;20217;-84
2022/01/02 03:13:39;;;;;;;;;;;8.80;99.90;;;;;;5049963;28;20347;-84
2022/01/02 03:16:05;;;;;;;;;;;8.80;99.90;;;;;;5033303;28;19920;-83
2022/01/02 03:18:33;;;;;;;;;;;8.80;99.90;;;;;;5034322;28;19923;-84
2022/01/02 03:20:58;;;;;;;;;;;8.80;99.90;;;;;;5034335;28;19912;-83
2022/01/02 03:23:24;;;;;;;;;;;8.80;99.90;;;;;;5050797;28;19919;-84
2022/01/02 03:25:49;;;;;;;;;;;8.80;99.90;;;;;;5034012;28;19916;-83
2022/01/02 03:28:15;;;;;;;;;;;8.80;99.90;;;;;;5036997;28;19947;-83
2022/01/02 03:30:41;;;;;;;;;;;8.70;99.90;;;;;;5049293;28;19974;-84
2022/01/02 03:33:07;;;;;;;;;;;8.70;99.90;;;;;;5032879;28;19912;-84
2022/01/02 03:35:35;;;;;;;;;;;8.70;99.90;;;;;;5034250;28;19912;-84
2022/01/02 03:38:01;;;;;;;;;;;8.70;99.90;;;;;;5035390;28;20217;-84
2022/01/02 03:40:27;;;;;;;;;;;8.70;99.90;;;;;;5041786;28;19909;-84
2022/01/02 03:42:53;;;;;;;;;;;8.70;99.90;;;;;;5033180;28;20611;-84
2022/01/02 03:45:18;;;;;;;;;;;8.70;99.90;;;;;;5044116;28;19909;-83
2022/01/02 03:47:44;;;;;;;;;;;8.70;99.90;;;;;;5053810;28;19915;-83
2022/01/02 03:50:10;;;;;;;;;;;8.70;99.90;;;;;;5040921;28;19913;-83
2022/01/02 03:52:35;;;;;;;;;;;8.70;99.90;;;;;;5041765;28;19912;-84
2022/01/02 03:55:01;;;;;;;;;;;8.70;99.90;;;;;;5039184;28;19916;-84
2022/01/02 03:57:26;;;;;;;;;;;8.70;99.90;;;;;;5052125;28;19962;-83
2022/01/02 03:59:52;;;;;;;;;;;8.70;99.90;;;;;;5038284;28;19912;-83
2022/01/02 04:02:17;;;;;;;;;;;8.70;99.90;;;;;;5052411;28;19913;-83
2022/01/02 04:04:43;;;;;;;;;;;8.70;99.90;;;;;;5039944;28;20490;-84
2022/01/02 04:07:08;;;;;;;;;;;8.70;99.90;;;;;;5051381;28;19966;-83
2022/01/02 04:09:34;;;;;;;;;;;8.70;99.90;;;;;;5037733;28;19935;-84
2022/01/02 04:12:00;;;;;;;;;;;8.70;99.90;;;;;;5053803;28;20699;-84
2022/01/02 04:14:25;;;;;;;;;;;8.70;99.90;;;;;;5038741;28;19970;-84
2022/01/02 04:16:51;;;;;;;;;;;8.70;99.90;;;;;;5037828;28;19913;-83
2022/01/02 04:19:16;;;;;;;;;;;8.70;99.90;;;;;;5043874;28;19927;-83
2022/01/02 04:21:42;;;;;;;;;;;8.70;99.90;;;;;;5035916;28;20400;-84
2022/01/02 04:24:07;;;;;;;;;;;8.70;99.90;;;;;;5053273;28;19908;-83
2022/01/02 04:26:33;;;;;;;;;;;8.70;99.90;;;;;;5038454;28;20004;-84
2022/01/02 04:28:58;;;;;;;;;;;8.70;99.90;;;;;;5054786;28;20380;-84
2022/01/02 04:31:24;;;;;;;;;;;8.70;99.90;;;;;;5040075;28;19919;-84
2022/01/02 04:33:49;;;;;;;;;;;8.70;99.90;;;;;;5039811;28;20152;-84
2022/01/02 04:36:15;;;;;;;;;;;8.70;99.90;;;;;;5038387;28;19912;-84
2022/01/02 04:38:42;;;;;;;;;;;8.70;99.90;;;;;;5055098;28;19996;-84
2022/01/02 04:41:08;;;;;;;;;;;8.70;99.90;;;;;;5036432;28;19991;-83
2022/01/02 04:43:33;;;;;;;;;;;8.70;99.90;;;;;;5038337;28;20671;-84
2022/01/02 04:45:59;;;;;;;;;;;8.70;99.90;;;;;;5049971;28;19909;-84
2022/01/02 04:48:24;;;;;;;;;;;8.70;99.90;;;;;;5039665;28;19987;-84
2022/01/02 04:50:50;;;;;;;;;;;8.70;99.90;;;;;;5037629;28;19966;-84
2022/01/02 04:53:15;;;;;;;;;;;8.60;99.90;;;;;;5037400;28;19909;-83
2022/01/02 04:55:41;;;;;;;;;;;8.60;99.90;;;;;;5036997;28;19913;-84
2022/01/02 04:58:06;;;;;;;;;;;8.60;99.90;;;;;;5037604;28;19916;-83
2022/01/02 05:00:32;;;;;;;;;;;8.60;99.90;;;;;;5037976;28;19916;-83
2022/01/02 05:02:57;;;;;;;;;;;8.50;99.90;;;;;;5053475;28;19912;-83
2022/01/02 05:05:23;;;;;;;;;;;8.50;99.90;;;;;;5037786;28;20163;-83
2022/01/02 05:07:48;;;;;;;;;;;8.50;99.90;;;;;;5049797;28;19909;-83
2022/01/02 05:10:14;;;;;;;;;;;8.40;99.90;;;;;;5050139;28;20007;-82
2022/01/02 05:12:39;;;;;;;;;;;8.40;99.90;;;;;;5037428;28;19931;-83
2022/01/02 05:15:05;;;;;;;;;;;8.40;99.90;;;;;;5038531;28;19966;-83
2022/01/02 05:17:31;;;;;;;;;;;8.40;99.90;;;;;;5035803;28;19912;-83
2022/01/02 05:19:56;;;;;;;;;;;8.30;99.90;;;;;;5051089;28;19919;-83
2022/01/02 05:22:21;;;;;;;;;;;8.30;99.90;;;;;;5038284;28;19916;-84
2022/01/02 05:24:47;;;;;;;;;;;8.20;99.90;;;;;;5036142;28;20004;-84
2022/01/02 05:27:13;;;;;;;;;;;8.20;99.90;;;;;;5036935;28;19983;-84
2022/01/02 05:29:39;;;;;;;;;;;8.30;99.90;;;;;;5036148;28;19931;-82
2022/01/02 05:32:04;;;;;;;;;;;8.30;99.90;;;;;;5036685;28;19970;-84
2022/01/02 05:34:30;;;;;;;;;;;8.30;99.90;;;;;;5053251;28;19916;-82
2022/01/02 05:36:55;;;;;;;;;;;8.30;99.90;;;;;;5034489;28;20345;-82
2022/01/02 05:39:22;;;;;;;;;;;8.20;99.90;;;;;;5053148;28;20352;-82
2022/01/02 05:41:48;;;;;;;;;;;8.20;99.90;;;;;;5053565;28;19912;-82
2022/01/02 05:44:14;;;;;;;;;;;8.20;99.90;;;;;;5038429;28;19919;-82
2022/01/02 05:46:40;;;;;;;;;;;8.20;99.90;;;;;;5038536;28;20347;-83
2022/01/02 05:49:06;;;;;;;;;;;8.20;99.90;;;;;;5044168;28;19912;-83
2022/01/02 05:51:31;;;;;;;;;;;8.10;99.90;;;;;;5037380;28;20560;-83
2022/01/02 05:53:57;;;;;;;;;;;8.10;99.90;;;;;;5040572;28;19915;-83
2022/01/02 05:56:22;;;;;;;;;;;8.20;99.90;;;;;;5034912;28;20391;-83
2022/01/02 05:58:48;;;;;;;;;;;8.10;99.90;;;;;;5037192;28;19999;-83
2022/01/02 06:01:13;;;;;;;;;;;8.10;99.90;;;;;;5038317;28;20344;-83
2022/01/02 06:03:39;;;;;;;;;;;8.00;99.90;;;;;;5036360;28;19913;-83
2022/01/02 06:06:04;;;;;;;;;;;8.00;99.90;;;;;;5043309;28;20225;-83
2022/01/02 06:08:30;;;;;;;;;;;8.00;99.90;;;;;;5044826;28;19912;-83
2022/01/02 06:10:55;;;;;;;;;;;8.00;99.90;;;;;;5035282;28;19925;-83
2022/01/02 06:13:21;;;;;;;;;;;8.00;99.90;;;;;;5053765;28;19913;-82
2022/01/02 06:15:46;;;;;;;;;;;8.00;99.90;;;;;;5037876;28;20000;-83
2022/01/02 06:18:12;;;;;;;;;;;8.00;99.90;;;;;;5037619;28;19952;-83
2022/01/02 06:20:38;;;;;;;;;;;8.00;99.90;;;;;;5050718;28;20239;-83
2022/01/02 06:23:03;;;;;;;;;;;8.00;99.90;;;;;;5037131;28;19912;-83
2022/01/02 06:25:29;;;;;;;;;;;8.00;99.90;;;;;;5036901;28;20663;-83
2022/01/02 06:27:54;;;;;;;;;;;8.10;99.90;;;;;;5040342;28;19912;-83
2022/01/02 06:30:20;;;;;;;;;;;8.10;99.90;;;;;;5052281;28;19962;-83
2022/01/02 06:32:45;;;;;;;;;;;8.10;99.90;;;;;;5037315;28;20098;-83
2022/01/02 06:35:11;;;;;;;;;;;8.00;99.90;;;;;;5036833;28;19908;-84
2022/01/02 06:37:37;;;;;;;;;;;8.10;99.90;;;;;;5035236;28;19924;-84
2022/01/02 06:40:03;;;;;;;;;;;8.10;99.90;;;;;;5037849;28;20023;-83
2022/01/02 06:42:28;;;;;;;;;;;8.10;99.90;;;;;;5043667;28;20287;-83
2022/01/02 06:44:54;;;;;;;;;;;8.10;99.90;;;;;;5035124;28;19919;-84
2022/01/02 06:47:19;;;;;;;;;;;8.20;99.90;;;;;;5038017;28;19923;-83
2022/01/02 06:49:45;;;;;;;;;;;8.30;99.90;;;;;;5051253;28;19947;-83
2022/01/02 06:52:10;;;;;;;;;;;8.20;99.90;;;;;;5035220;28;19919;-84
2022/01/02 06:54:37;;;;;;;;;;;8.20;99.90;;;;;;5036257;28;20012;-83
2022/01/02 06:57:03;;;;;;;;;;;8.20;99.90;;;;;;5036191;28;19913;-83
2022/01/02 06:59:30;;;;;;;;;;;8.30;99.90;;;;;;5036301;28;19916;-83
2022/01/02 07:01:56;;;;;;;;;;;8.30;99.90;;;;;;5050912;28;20221;-84
2022/01/02 07:04:22;;;;;;;;;;;8.30;99.90;;;;;;5041754;28;19912;-83
2022/01/02 07:06:47;;;;;;;;;;;8.40;99.90;;;;;;5046999;28;19995;-83
2022/01/02 07:09:14;;;;;;;;;;;8.40;99.90;;;;;;5031898;28;19929;-84
2022/01/02 07:11:39;;;;;;;;;;;8.50;99.90;;;;;;5031225;28;20336;-84
2022/01/02 07:14:05;;;;;;;;;;;8.50;99.90;;;;;;5029885;28;19947;-84
2022/01/02 07:16:30;;;;;;;;;;;8.50;99.90;;;;;;5029643;28;20319;-83
2022/01/02 07:18:55;;;;;;;;;;;8.60;99.90;;;;;;5032602;28;19913;-84
2022/01/02 07:21:21;;;;;;;;;;;8.60;99.90;;;;;;5034739;28;19908;-84
2022/01/02 07:23:48;;;;;;;;;;;8.60;99.90;;;;;;5036290;28;19966;-84
2022/01/02 07:26:14;;;;;;;;;;;8.70;99.90;;;;;;5035241;28;19950;-83
2022/01/02 07:28:39;;;;;;;;;;;8.70;99.90;;;;;;5036347;28;20708;-83
2022/01/02 07:31:05;;;;;;;;;;;8.70;99.90;;;;;;5034883;28;20372;-83
2022/01/02 07:33:30;;;;;;;;;;;8.80;99.90;;;;;;5036846;28;19948;-83
2022/01/02 07:35:56;;;;;;;;;;;8.80;99.90;;;;;;5037090;28;19958;-84
2022/01/02 07:38:21;;;;;;;;;;;8.80;99.90;;;;;;5035830;28;20398;-84
2022/01/02 07:40:48;;;;;;;;;;;8.80;99.90;;;;;;5037023;28;20159;-84
2022/01/02 07:43:14;;;;;;;;;;;8.80;99.90;;;;;;5035863;28;19932;-83
2022/01/02 07:45:39;;;;;;;;;;;8.90;99.90;;;;;;5036513;28;20339;-84
2022/01/02 07:48:05;;;;;;;;;;;8.90;99.90;;;;;;5036655;28;20418;-83
2022/01/02 07:50:30;;;;;;;;;;;8.90;99.90;;;;;;5034621;28;19913;-84
2022/01/02 07:53:19;;;;;;;;;;;8.90;99.90;;;;;;5035084;28;19915;-88
2022/01/02 07:55:44;;;;;;;;;;;8.80;99.90;;;;;;5002373;28;20361;-87
2022/01/02 07:58:10;;;;;;;;;;;8.80;99.90;;;;;;5037127;28;19923;-89
2022/01/02 08:00:36;;;;;;;;;;;8.80;99.90;;;;;;5033499;28;20004;-87
2022/01/02 08:03:01;;;;;;;;;;;8.80;99.90;;;;;;5034604;28;19942;-87
2022/01/02 08:05:27;;;;;;;;;;;8.90;99.90;;;;;;5032532;28;19920;-87
2022/01/02 08:07:53;;;;;;;;;;;8.90;99.90;;;;;;5035184;28;20015;-88
2022/01/02 08:10:19;;;;;;;;;;;8.90;99.90;;;;;;5042882;28;19960;-87
2022/01/02 08:12:44;;;;;;;;;;;8.90;99.90;;;;;;5034663;28;20009;-86
2022/01/02 08:15:10;;;;;;;;;;;8.90;99.90;;;;;;5036429;28;19913;-86
2022/01/02 08:17:37;;;;;;;;;;;8.90;99.90;;;;;;5034075;28;19917;-88
2022/01/02 08:20:03;;;;;;;;;;;9.00;99.90;;;;;;5041861;28;19913;-87
2022/01/02 08:22:28;;;;;;;;;;;9.00;99.90;;;;;;5032135;28;19915;-87
2022/01/02 08:24:57;;;;;;;;;;;9.10;99.90;;;;;;5024241;28;20289;-86
2022/01/02 08:27:22;;;;;;;;;;;9.10;99.90;;;;;;5014063;28;19913;-85
2022/01/02 08:29:49;;;;;;;;;;;9.20;99.90;;;;;;5040629;28;20474;-87
2022/01/02 08:32:15;;;;;;;;;;;9.30;99.90;;;;;;5030983;28;19936;-87
2022/01/02 08:35:01;;;;;;;;;;;9.30;99.90;;;;;;5034094;28;20343;-87
2022/01/02 08:37:26;;;;;;;;;;;9.30;99.90;;;;;;5017533;28;19920;-88
2022/01/02 08:39:52;;;;;;;;;;;9.40;99.90;;;;;;5035607;28;19913;-88
2022/01/02 08:42:17;;;;;;;;;;;9.40;99.90;;;;;;5020908;28;20047;-87
2022/01/02 08:44:43;;;;;;;;;;;9.40;99.90;;;;;;5035322;28;19966;-87
2022/01/02 08:47:10;;;;;;;;;;;9.40;99.90;;;;;;5034876;28;19908;-86
2022/01/02 08:49:39;;;;;;;;;;;9.40;99.90;;;;;;5041768;28;19920;-89
2022/01/02 08:52:05;;;;;;;;;;;9.40;99.90;;;;;;5024566;28;20072;-88
2022/01/02 08:54:39;;;;;;;;;;;9.40;99.90;;;;;;5012200;28;20000;-90
2022/01/02 08:57:09;;;;;;;;;;;9.50;99.90;;;;;;5003884;28;19997;-89
2022/01/02 08:59:39;;;;;;;;;;;9.50;99.90;;;;;;5002278;28;19971;-90
2022/01/02 09:02:07;;;;;;;;;;;9.50;99.90;;;;;;5002979;28;20453;-89
2022/01/02 09:05:18;;;;;;;;;;;9.60;99.90;;;;;;4971918;28;19913;-89
2022/01/02 09:07:54;;;;;;;;;;;;;;;;;;;;;
2022/01/02 09:10:24;;;;;;;;;;;9.60;99.90;;;;;;4997526;28;22305;-90
2022/01/02 09:16:40;;;;;;;;;;;;;;;;;;;;;
2022/01/02 09:19:36;;;;;;;;;;;9.70;99.90;;;;;;4933635;28;20182;-89
2022/01/02 09:22:07;;;;;;;;;;;9.70;99.90;;;;;;4958969;28;19993;-89
2022/01/02 09:24:35;;;;;;;;;;;9.70;99.90;;;;;;5024231;28;19908;-89
2022/01/02 09:27:01;;;;;;;;;;;9.80;99.90;;;;;;5035012;28;19919;-89
2022/01/02 09:29:26;;;;;;;;;;;9.80;99.90;;;;;;5041094;28;19912;-88
2022/01/02 09:31:52;;;;;;;;;;;9.80;99.90;;;;;;5044535;28;19916;-88
2022/01/02 09:34:17;;;;;;;;;;;9.80;99.90;;;;;;5050692;28;20301;-87
2022/01/02 09:36:43;;;;;;;;;;;9.80;99.90;;;;;;5044845;28;20570;-87
2022/01/02 09:39:08;;;;;;;;;;;9.80;99.90;;;;;;5051427;28;19913;-88
2022/01/02 09:41:34;;;;;;;;;;;9.80;99.90;;;;;;5035924;28;19923;-88
2022/01/02 09:44:00;;;;;;;;;;;9.70;99.90;;;;;;5024786;28;19917;-89
2022/01/02 09:46:28;;;;;;;;;;;9.70;99.90;;;;;;5034747;28;19912;-90
2022/01/02 09:48:54;;;;;;;;;;;9.70;99.90;;;;;;5023523;28;20360;-86
2022/01/02 09:51:21;;;;;;;;;;;9.80;99.90;;;;;;5034562;28;20741;-88
2022/01/02 09:53:47;;;;;;;;;;;9.80;99.90;;;;;;5015763;28;20006;-90
2022/01/02 09:56:16;;;;;;;;;;;9.80;99.90;;;;;;5035826;28;20007;-88
2022/01/02 09:58:43;;;;;;;;;;;9.80;99.90;;;;;;5036464;28;19917;-87
2022/01/02 10:01:22;;;;;;;;;;;9.80;99.90;;;;;;5052773;28;19967;-88
2022/01/02 10:03:53;;;;;;;;;;;9.90;99.90;;;;;;5043897;28;19920;-88
2022/01/02 10:06:20;;;;;;;;;;;9.90;99.90;;;;;;5036119;28;19916;-89
2022/01/02 10:08:48;;;;;;;;;;;9.90;99.90;;;;;;5034409;28;20897;-89
2022/01/02 10:11:22;;;;;;;;;;;9.90;99.90;;;;;;5036895;28;19928;-87
2022/01/02 10:13:49;;;;;;;;;;;9.90;99.90;;;;;;5035914;28;20031;-88
2022/01/02 10:16:22;;;;;;;;;;;9.90;99.90;;;;;;5036718;28;19916;-89
2022/01/02 10:18:48;;;;;;;;;;;9.90;99.90;;;;;;5043669;28;19995;-88
2022/01/02 10:21:31;;;;;;;;;;;10.00;99.90;;;;;;5042573;28;20368;-89
2022/01/02 10:24:15;;;;;;;;;;;10.00;99.90;;;;;;5029023;28;19913;-88
2022/01/02 10:27:00;;;;;;;;;;;10.00;99.90;;;;;;5036424;28;20549;-87
2022/01/02 10:29:25;;;;;;;;;;;10.00;99.90;;;;;;5048923;28;19932;-88
2022/01/02 10:31:51;;;;;;;;;;;10.10;99.90;;;;;;5035781;28;19913;-88
2022/01/02 10:34:17;;;;;;;;;;;10.10;99.90;;;;;;5035092;28;20008;-89
2022/01/02 10:36:44;;;;;;;;;;;10.00;99.90;;;;;;5048062;28;20435;-88
2022/01/02 10:39:20;;;;;;;;;;;10.10;99.90;;;;;;5036535;28;19917;-89
2022/01/02 10:41:51;;;;;;;;;;;10.10;99.90;;;;;;5033122;28;19955;-87
2022/01/02 10:44:37;;;;;;;;;;;10.10;99.90;;;;;;5047656;28;19916;-88
2022/01/02 10:47:25;;;;;;;;;;;10.00;99.90;;;;;;4982078;28;19941;-88
2022/01/02 10:49:52;;;;;;;;;;;10.00;99.90;;;;;;4973907;28;19909;-88
2022/01/02 10:52:24;;;;;;;;;;;10.00;99.90;;;;;;4981044;28;19913;-88
2022/01/02 10:54:50;;;;;;;;;;;10.00;99.90;;;;;;4991626;28;20082;-87
2022/01/02 10:57:16;;;;;;;;;;;10.00;99.90;;;;;;4989394;28;20397;-88
2022/01/02 10:59:44;;;;;;;;;;;10.00;99.90;;;;;;4989326;28;20012;-87
2022/01/02 11:02:11;;;;;;;;;;;10.00;99.90;;;;;;4980859;28;20008;-86
2022/01/02 11:04:37;;;;;;;;;;;10.00;99.90;;;;;;4989183;28;20269;-87
2022/01/02 11:07:05;;;;;;;;;;;10.00;99.90;;;;;;4989294;28;19964;-87
2022/01/02 11:09:31;;;;;;;;;;;10.00;99.90;;;;;;4991520;28;20439;-88
2022/01/02 11:11:56;;;;;;;;;;;10.00;99.90;;;;;;4991170;28;19917;-86
2022/01/02 11:14:22;;;;;;;;;;;10.00;99.90;;;;;;4976617;28;19952;-87
2022/01/02 11:16:51;;;;;;;;;;;9.90;99.90;;;;;;4989087;28;20372;-87
2022/01/02 11:19:17;;;;;;;;;;;9.90;99.90;;;;;;4981257;28;19924;-87
2022/01/02 11:21:44;;;;;;;;;;;9.90;99.90;;;;;;4984693;28;19922;-89
2022/01/02 11:24:18;;;;;;;;;;;9.90;99.90;;;;;;5022408;28;20011;-88
2022/01/02 11:26:48;;;;;;;;;;;9.80;99.90;;;;;;5032686;28;20259;-88
2022/01/02 11:29:15;;;;;;;;;;;9.80;99.90;;;;;;5051045;28;19916;-87
2022/01/02 11:31:43;;;;;;;;;;;9.90;99.90;;;;;;5033120;28;20395;-87
2022/01/02 11:34:25;;;;;;;;;;;9.90;99.90;;;;;;5035875;28;20122;-87
2022/01/02 11:36:51;;;;;;;;;;;9.90;99.90;;;;;;5035079;28;20019;-88
2022/01/02 11:39:17;;;;;;;;;;;9.90;99.90;;;;;;5033659;28;20368;-87
2022/01/02 11:41:50;;;;;;;;;;;9.90;99.90;;;;;;5031932;28;19978;-86
2022/01/02 11:44:18;;;;;;;;;;;9.90;99.90;;;;;;5035228;28;19935;-86
2022/01/02 11:46:53;;;;;;;;;;;9.90;99.90;;;;;;5038936;28;19912;-84
2022/01/02 11:49:20;;;;;;;;;;;9.90;99.90;;;;;;5048539;28;20557;-88
2022/01/02 11:51:48;;;;;;;;;;;9.90;99.90;;;;;;5035841;28;19912;-88
2022/01/02 11:54:47;;;;;;;;;;;9.90;99.90;;;;;;5039968;28;19912;-89
2022/01/02 11:57:18;;;;;;;;;;;9.90;99.90;;;;;;5023118;28;19913;-86
2022/01/02 11:59:43;;;;;;;;;;;9.90;99.90;;;;;;5046405;28;19952;-86
2022/01/02 12:02:18;;;;;;;;;;;9.90;99.90;;;;;;5036501;28;19975;-88
2022/01/02 12:07:33;;;;;;;;;;;10.00;99.90;;;;;;5044719;28;19999;-87
2022/01/02 12:10:17;;;;;;;;;;;10.00;99.90;;;;;;5051060;28;19924;-87
2022/01/02 12:13:02;;;;;;;;;;;10.00;99.90;;;;;;5038218;28;19916;-85
2022/01/02 12:15:34;;;;;;;;;;;9.90;99.90;;;;;;5035846;28;19916;-88
2022/01/02 12:18:07;;;;;;;;;;;9.90;99.90;;;;;;5054840;28;19921;-86
2022/01/02 12:20:54;;;;;;;;;;;9.90;99.90;;;;;;5052666;28;20356;-86
2022/01/02 12:23:40;;;;;;;;;;;9.90;99.90;;;;;;5054716;28;20002;-87
2022/01/02 12:26:08;;;;;;;;;;;9.90;99.90;;;;;;5038942;28;19924;-85
2022/01/02 12:28:41;;;;;;;;;;;9.90;99.90;;;;;;5051329;28;19913;-86
2022/01/02 12:31:07;;;;;;;;;;;9.90;99.90;;;;;;5055475;28;20292;-86
2022/01/02 12:33:35;;;;;;;;;;;9.90;99.90;;;;;;5038005;28;19965;-88
2022/01/02 12:36:41;;;;;;;;;;;9.90;99.90;;;;;;5036724;28;20043;-87
2022/01/02 12:39:08;;;;;;;;;;;9.90;99.90;;;;;;4992043;28;20427;-87
2022/01/02 12:41:35;;;;;;;;;;;9.90;99.90;;;;;;5039725;28;19912;-88
2022/01/02 12:44:00;;;;;;;;;;;9.90;99.90;;;;;;5041265;28;20371;-88
2022/01/02 12:46:39;;;;;;;;;;;9.80;99.90;;;;;;5024479;28;19912;-85
2022/01/02 12:49:06;;;;;;;;;;;9.80;99.90;;;;;;5041339;28;19918;-86
2022/01/02 12:51:32;;;;;;;;;;;9.80;99.90;;;;;;5050111;28;19948;-85
2022/01/02 12:54:02;;;;;;;;;;;9.80;99.90;;;;;;5039118;28;19912;-87
2022/01/02 12:56:35;;;;;;;;;;;9.80;99.90;;;;;;5028761;28;19924;-89
2022/01/02 12:59:18;;;;;;;;;;;9.80;99.90;;;;;;5039791;28;19955;-88
2022/01/02 13:01:50;;;;;;;;;;;9.80;99.90;;;;;;5052834;28;19912;-89
2022/01/02 13:04:17;;;;;;;;;;;9.80;99.90;;;;;;5046467;28;19988;-86
2022/01/02 13:06:46;;;;;;;;;;;9.80;99.90;;;;;;5053076;28;19919;-89
2022/01/02 13:09:12;;;;;;;;;;;9.70;99.90;;;;;;5056199;28;19917;-87
2022/01/02 13:11:37;;;;;;;;;;;9.80;99.90;;;;;;5052437;28;19936;-89
2022/01/02 13:14:03;;;;;;;;;;;9.70;99.90;;;;;;5037058;28;20036;-90
2022/01/02 13:16:29;;;;;;;;;;;9.80;99.90;;;;;;5039686;28;19948;-88
2022/01/02 13:18:55;;;;;;;;;;;9.80;99.90;;;;;;5039674;28;20364;-87
2022/01/02 13:21:20;;;;;;;;;;;9.70;99.90;;;;;;5056237;28;20804;-87
2022/01/02 13:23:46;;;;;;;;;;;9.70;99.90;;;;;;5035343;28;19908;-86
2022/01/02 13:26:15;;;;;;;;;;;9.70;99.90;;;;;;5036054;28;19916;-87
2022/01/02 13:28:41;;;;;;;;;;;9.70;99.90;;;;;;5035516;28;19912;-86
2022/01/02 13:31:07;;;;;;;;;;;9.70;99.90;;;;;;5025033;28;19991;-87
2022/01/02 13:33:39;;;;;;;;;;;9.70;99.90;;;;;;5036398;28;19916;-86
2022/01/02 13:36:07;;;;;;;;;;;9.80;99.90;;;;;;5042875;28;19913;-87
2022/01/02 13:38:48;;;;;;;;;;;9.80;99.90;;;;;;5036369;28;19917;-89
2022/01/02 13:41:13;;;;;;;;;;;9.80;99.90;;;;;;5052090;28;19912;-87
2022/01/02 13:43:39;;;;;;;;;;;9.80;99.90;;;;;;5054160;28;19957;-86
2022/01/02 13:46:04;;;;;;;;;;;9.70;99.90;;;;;;5036612;28;19960;-88
2022/01/02 13:48:30;;;;;;;;;;;9.70;99.90;;;;;;5038174;28;19909;-84
2022/01/02 13:50:58;;;;;;;;;;;9.70;99.90;;;;;;5035722;28;19913;-85
2022/01/02 13:53:30;;;;;;;;;;;9.70;99.90;;;;;;5051326;28;20407;-85
2022/01/02 13:56:18;;;;;;;;;;;9.70;99.90;;;;;;5035011;28;19909;-86
2022/01/02 13:58:44;;;;;;;;;;;9.70;99.90;;;;;;5035730;28;19917;-85
2022/01/02 14:01:17;;;;;;;;;;;9.70;99.90;;;;;;5047913;28;19955;-84
2022/01/02 14:03:43;;;;;;;;;;;9.60;99.90;;;;;;5034852;28;19999;-86
2022/01/02 14:06:10;;;;;;;;;;;9.60;99.90;;;;;;5047602;28;20000;-86
2022/01/02 14:08:39;;;;;;;;;;;9.60;99.90;;;;;;5051433;28;24784;-87
2022/01/02 14:11:07;;;;;;;;;;;9.60;99.90;;;;;;5031387;28;20206;-86
2022/01/02 14:13:49;;;;;;;;;;;9.60;99.90;;;;;;5015952;28;19909;-86
2022/01/02 14:16:31;;;;;;;;;;;9.60;99.90;;;;;;5027509;28;20291;-86
2022/01/02 14:18:57;;;;;;;;;;;9.60;99.90;;;;;;5016642;28;19924;-86
2022/01/02 14:21:22;;;;;;;;;;;9.60;99.90;;;;;;5029141;28;19913;-86
2022/01/02 14:23:48;;;;;;;;;;;9.60;99.90;;;;;;5029037;28;19932;-87
2022/01/02 14:26:15;;;;;;;;;;;9.60;99.90;;;;;;5023304;28;19937;-86
2022/01/02 14:28:40;;;;;;;;;;;9.60;99.90;;;;;;5015240;28;19923;-85
2022/01/02 14:31:06;;;;;;;;;;;9.60;99.90;;;;;;5014933;28;19921;-85
2022/01/02 14:33:31;;;;;;;;;;;9.60;99.90;;;;;;5015762;28;20023;-86
2022/01/02 14:35:57;;;;;;;;;;;9.60;99.90;;;;;;5014530;28;20826;-86
2022/01/02 14:38:22;;;;;;;;;;;9.60;99.90;;;;;;5016496;28;20345;-87
2022/01/02 14:40:48;;;;;;;;;;;9.50;99.90;;;;;;5012918;28;20354;-87
2022/01/02 14:43:13;;;;;;;;;;;9.50;99.90;;;;;;5014773;28;20288;-85
2022/01/02 14:45:39;;;;;;;;;;;9.50;99.90;;;;;;5014673;28;19916;-87
2022/01/02 14:48:04;;;;;;;;;;;9.50;99.90;;;;;;5014328;28;20426;-86
2022/01/02 14:50:30;;;;;;;;;;;9.50;99.90;;;;;;5017282;28;19909;-84
2022/01/02 14:52:55;;;;;;;;;;;9.50;99.90;;;;;;5031993;28;19912;-85
2022/01/02 14:55:21;;;;;;;;;;;9.50;99.90;;;;;;5014549;28;19920;-86